createdAt,value
2022-11-29T00:00:16.051Z,98768.06
2022-11-29T00:03:18.156Z,98766.84
2022-11-29T00:06:22.492Z,98772.31
2022-11-29T00:09:24.492Z,98776.56
2022-11-29T00:12:26.520Z,98786.91
2022-11-29T00:15:28.561Z,98780.25
2022-11-29T00:18:30.573Z,98786.69
2022-11-29T00:21:32.604Z,98782.22
2022-11-29T00:24:34.782Z,98780.88
2022-11-29T00:27:36.811Z,98779.03
2022-11-29T00:30:39.018Z,98783.28
2022-11-29T00:33:41.148Z,98787.47
2022-11-29T00:36:43.250Z,98791.78
2022-11-29T00:39:45.300Z,98791.38
2022-11-29T00:42:47.339Z,98795.03
2022-11-29T00:45:49.518Z,98792.81
2022-11-29T00:48:51.580Z,98799.06
2022-11-29T00:51:53.607Z,98796.38
2022-11-29T00:54:55.638Z,98802.78
2022-11-29T00:57:57.673Z,98809.09
2022-11-29T01:00:59.817Z,98807.97
2022-11-29T01:04:02.160Z,98815.25
2022-11-29T01:07:04.194Z,98812.84
2022-11-29T01:10:07.418Z,98821.53
2022-11-29T01:13:09.837Z,98814.03
2022-11-29T01:16:12.002Z,98814.84
2022-11-29T01:19:14.130Z,98822.75
2022-11-29T01:22:16.230Z,98819.94
2022-11-29T01:25:19.413Z,98819.69
2022-11-29T01:28:21.867Z,98826.59
2022-11-29T01:31:32.441Z,98828.22
2022-11-29T01:34:34.515Z,98837.09
2022-11-29T01:37:36.588Z,98840.75
2022-11-29T01:40:38.630Z,98837.69
2022-11-29T01:44:14.409Z,98836.69
2022-11-29T01:47:17.911Z,98841.13
2022-11-29T01:50:19.970Z,98840.75
2022-11-29T01:53:22.332Z,98852.09
2022-11-29T01:56:24.732Z,98855.53
2022-11-29T01:59:27.837Z,98849.66
2022-11-29T02:02:44.783Z,98857.75
2022-11-29T02:05:49.371Z,98858.69
2022-11-29T02:08:51.460Z,98862.16
2022-11-29T02:12:20.371Z,98873.34
2022-11-29T02:15:44.166Z,98875.34
2022-11-29T02:19:11.488Z,98877.16
2022-11-29T02:22:48.541Z,98877.78
2022-11-29T02:26:07.083Z,98878.34
2022-11-29T02:29:33.722Z,98878.94
2022-11-29T02:33:02.434Z,98876.13
2022-11-29T02:36:40.069Z,98881.00
2022-11-29T02:40:19.554Z,98882.78
2022-11-29T02:43:51.490Z,98879.97
2022-11-29T02:47:26.800Z,98893.72
2022-11-29T02:50:39.597Z,98891.31
2022-11-29T02:54:18.202Z,98901.19
2022-11-29T02:57:30.412Z,98899.63
2022-11-29T03:00:32.780Z,98899.41
2022-11-29T03:04:09.421Z,98909.13
2022-11-29T03:07:39.597Z,98912.44
2022-11-29T03:11:03.435Z,98917.03
2022-11-29T03:14:20.885Z,98915.19
2022-11-29T03:17:32.876Z,98920.00
2022-11-29T03:21:05.645Z,98928.75
2022-11-29T03:24:16.147Z,98930.44
2022-11-29T03:27:30.672Z,98929.41
2022-11-29T03:30:34.917Z,98934.88
2022-11-29T03:33:54.653Z,98930.59
2022-11-29T03:37:18.899Z,98942.91
2022-11-29T03:40:51.809Z,98951.56
2022-11-29T03:44:31.680Z,98954.41
2022-11-29T03:48:02.309Z,98967.81
2022-11-29T03:51:06.200Z,98960.56
2022-11-29T03:54:11.255Z,98958.94
2022-11-29T03:57:14.066Z,98967.31
2022-11-29T04:00:16.766Z,98972.69
2022-11-29T04:04:03.514Z,98971.00
2022-11-29T04:07:24.102Z,98971.16
2022-11-29T04:11:03.629Z,98971.53
2022-11-29T04:15:00.746Z,98971.56
2022-11-29T04:18:17.762Z,98973.72
2022-11-29T04:21:50.553Z,98975.66
2022-11-29T04:25:19.932Z,98976.31
2022-11-29T04:28:49.315Z,98983.84
2022-11-29T04:32:00.232Z,98988.84
2022-11-29T04:35:28.516Z,98992.97
2022-11-29T04:39:14.883Z,98997.31
2022-11-29T04:43:06.202Z,98988.88
2022-11-29T04:46:26.123Z,98994.22
2022-11-29T04:50:04.847Z,98999.38
2022-11-29T04:53:19.853Z,99012.44
2022-11-29T04:56:40.318Z,99015.47
2022-11-29T05:00:06.548Z,99005.50
2022-11-29T05:03:16.713Z,99004.09
2022-11-29T05:06:53.823Z,99009.59
2022-11-29T05:10:28.733Z,99013.38
2022-11-29T05:14:17.812Z,99023.47
2022-11-29T05:18:08.999Z,99028.47
2022-11-29T05:21:41.505Z,99037.88
2022-11-29T05:25:25.081Z,99040.63
2022-11-29T05:28:33.732Z,99049.09
2022-11-29T05:32:03.705Z,99053.66
2022-11-29T05:35:35.842Z,99056.53
2022-11-29T05:39:05.175Z,99061.44
2022-11-29T05:42:26.229Z,99062.34
2022-11-29T05:45:48.126Z,99068.63
2022-11-29T05:49:01.412Z,99073.66
2022-11-29T05:52:56.372Z,99072.69
2022-11-29T05:56:40.362Z,99069.56
2022-11-29T05:59:42.890Z,99071.34
2022-11-29T06:02:59.518Z,99073.66
2022-11-29T06:06:39.734Z,99067.31
2022-11-29T06:09:49.996Z,99070.00
2022-11-29T06:13:25.860Z,99075.97
2022-11-29T06:16:58.542Z,99087.28
2022-11-29T06:20:33.482Z,99082.47
2022-11-29T06:23:59.720Z,99087.81
2022-11-29T06:27:19.608Z,99093.38
2022-11-29T06:30:26.353Z,99104.34
2022-11-29T06:33:47.100Z,99112.75
2022-11-29T06:36:56.956Z,99118.44
2022-11-29T06:39:59.403Z,99127.22
2022-11-29T06:43:01.797Z,99129.69
2022-11-29T06:46:34.008Z,99128.94
2022-11-29T06:49:47.024Z,99129.22
2022-11-29T06:52:59.622Z,99123.56
2022-11-29T06:56:10.493Z,99121.31
2022-11-29T06:59:39.859Z,99123.25
2022-11-29T07:03:18.673Z,99139.19
2022-11-29T07:06:28.358Z,99140.66
2022-11-29T07:09:34.717Z,99145.28
2022-11-29T07:12:37.178Z,99145.84
2022-11-29T07:16:02.570Z,99144.09
2022-11-29T07:20:04.710Z,99151.75
2022-11-29T07:23:24.394Z,99160.34
2022-11-29T07:26:30.613Z,99165.38
2022-11-29T07:30:12.802Z,99166.97
2022-11-29T07:33:33.684Z,99169.09
2022-11-29T07:36:47.533Z,99176.75
2022-11-29T07:40:25.333Z,99187.00
2022-11-29T07:43:40.023Z,99182.47
2022-11-29T07:46:42.186Z,99180.84
2022-11-29T07:49:44.374Z,99178.91
2022-11-29T07:52:47.410Z,99178.78
2022-11-29T07:55:49.541Z,99179.47
2022-11-29T07:58:51.725Z,99190.63
2022-11-29T08:01:53.984Z,99189.59
2022-11-29T08:04:56.065Z,99188.63
2022-11-29T08:07:58.253Z,99189.75
2022-11-29T08:11:00.333Z,99189.44
2022-11-29T08:14:03.669Z,99197.41
2022-11-29T08:17:05.722Z,99196.38
2022-11-29T08:20:08.432Z,99192.88
2022-11-29T08:23:12.720Z,99192.81
2022-11-29T08:26:15.566Z,99202.66
2022-11-29T08:29:17.684Z,99202.25
2022-11-29T08:32:19.752Z,99204.16
2022-11-29T08:35:22.725Z,99197.06
2022-11-29T08:38:24.903Z,99205.88
2022-11-29T08:41:26.935Z,99207.75
2022-11-29T08:44:29.559Z,99203.66
2022-11-29T08:47:37.772Z,99200.28
2022-11-29T08:50:39.879Z,99205.16
2022-11-29T08:53:41.992Z,99210.56
2022-11-29T09:00:07.236Z,99213.84
2022-11-29T09:03:27.608Z,99221.22
2022-11-29T09:06:38.589Z,99216.44
2022-11-29T09:09:40.680Z,99224.94
2022-11-29T09:12:44.412Z,99223.69
2022-11-29T09:15:46.569Z,99228.38
2022-11-29T09:18:51.940Z,99232.88
2022-11-29T09:21:54.409Z,99238.16
2022-11-29T09:24:56.448Z,99245.06
2022-11-29T09:28:01.341Z,99252.44
2022-11-29T09:31:10.920Z,99254.81
2022-11-29T09:34:14.778Z,99260.56
2022-11-29T09:37:17.173Z,99269.81
2022-11-29T09:40:22.255Z,99268.28
2022-11-29T09:44:03.132Z,99265.25
2022-11-29T09:47:26.090Z,99272.66
2022-11-29T09:50:36.629Z,99275.06
2022-11-29T09:54:16.290Z,99270.25
2022-11-29T09:57:19.294Z,99273.44
2022-11-29T10:00:21.592Z,99275.53
2022-11-29T10:03:33.956Z,99267.81
2022-11-29T10:06:40.498Z,99277.38
2022-11-29T10:09:56.561Z,99281.63
2022-11-29T10:13:30.938Z,99283.69
2022-11-29T10:16:53.895Z,99274.31
2022-11-29T10:20:11.246Z,99274.91
2022-11-29T10:23:33.379Z,99275.53
2022-11-29T10:26:35.709Z,99278.97
2022-11-29T10:29:38.380Z,99281.09
2022-11-29T10:32:40.485Z,99281.44
2022-11-29T10:35:42.541Z,99278.06
2022-11-29T10:38:44.616Z,99278.50
2022-11-29T10:41:48.122Z,99283.13
2022-11-29T10:44:50.157Z,99281.00
2022-11-29T10:47:54.765Z,99284.09
2022-11-29T10:50:56.910Z,99278.56
2022-11-29T10:54:21.046Z,99284.13
2022-11-29T10:57:23.247Z,99291.03
2022-11-29T11:00:25.362Z,99276.59
2022-11-29T11:04:07.395Z,99297.19
2022-11-29T11:07:33.369Z,99293.72
2022-11-29T11:10:35.589Z,99281.88
2022-11-29T11:13:39.151Z,99286.88
2022-11-29T11:16:41.256Z,99285.78
2022-11-29T11:19:44.407Z,99280.19
2022-11-29T11:23:00.223Z,99278.59
2022-11-29T11:26:04.902Z,99280.09
2022-11-29T11:29:06.945Z,99282.22
2022-11-29T11:32:19.015Z,99270.75
2022-11-29T11:35:24.373Z,99269.91
2022-11-29T11:38:26.408Z,99277.34
2022-11-29T11:41:54.493Z,99280.22
2022-11-29T11:44:56.541Z,99279.09
2022-11-29T11:48:12.717Z,99276.66
2022-11-29T11:51:25.558Z,99281.34
2022-11-29T11:54:28.293Z,99285.38
2022-11-29T11:57:30.406Z,99285.34
2022-11-29T12:01:06.214Z,99278.28
2022-11-29T12:04:21.594Z,99275.53
2022-11-29T12:08:09.789Z,99277.56
2022-11-29T12:11:13.511Z,99277.75
2022-11-29T12:14:24.344Z,99282.44
2022-11-29T12:17:36.577Z,99278.47
2022-11-29T12:21:17.688Z,99264.59
2022-11-29T12:24:26.569Z,99279.97
2022-11-29T12:27:28.876Z,99290.13
2022-11-29T12:30:30.969Z,99284.88
2022-11-29T12:34:00.620Z,99286.81
2022-11-29T12:37:15.099Z,99290.78
2022-11-29T12:40:44.625Z,99295.19
2022-11-29T12:44:21.833Z,99300.22
2022-11-29T12:47:52.298Z,99299.09
2022-11-29T12:51:25.262Z,99291.78
2022-11-29T12:54:37.871Z,99290.38
2022-11-29T12:57:57.431Z,99300.50
2022-11-29T13:01:17.401Z,99301.88
2022-11-29T13:04:51.763Z,99294.25
2022-11-29T13:08:51.363Z,99312.97
2022-11-29T13:12:00.081Z,99312.50
2022-11-29T13:15:20.924Z,99301.63
2022-11-29T13:18:55.232Z,99299.75
2022-11-29T13:22:06.673Z,99296.31
2022-11-29T13:25:35.576Z,99306.28
2022-11-29T13:28:42.243Z,99305.88
2022-11-29T13:31:45.543Z,99306.69
2022-11-29T13:34:47.838Z,99309.75
2022-11-29T13:38:03.883Z,99307.03
2022-11-29T13:41:29.477Z,99303.69
2022-11-29T13:44:59.094Z,99297.56
2022-11-29T13:48:02.249Z,99305.03
2022-11-29T13:51:33.185Z,99299.91
2022-11-29T13:54:35.232Z,99298.03
2022-11-29T13:58:15.371Z,99309.56
2022-11-29T14:01:15.599Z,99305.72
2022-11-29T14:04:35.963Z,99300.38
2022-11-29T14:07:38.015Z,99308.50
2022-11-29T14:10:40.080Z,99292.47
2022-11-29T14:13:42.005Z,99292.44
2022-11-29T14:16:43.922Z,99287.72
2022-11-29T14:19:45.964Z,99300.84
2022-11-29T14:23:09.023Z,99320.03
2022-11-29T14:26:10.928Z,99316.38
2022-11-29T14:29:48.316Z,99315.69
2022-11-29T14:32:58.865Z,99311.19
2022-11-29T14:36:18.683Z,99306.47
2022-11-29T14:39:42.973Z,99298.13
2022-11-29T14:42:48.465Z,99304.78
2022-11-29T14:46:11.624Z,99309.84
2022-11-29T14:49:24.704Z,99302.34
2022-11-29T14:52:37.994Z,99302.59
2022-11-29T14:55:40.089Z,99302.03
2022-11-29T14:58:42.150Z,99306.06
2022-11-29T15:01:44.460Z,99306.59
2022-11-29T15:04:48.306Z,99304.78
2022-11-29T15:08:19.220Z,99309.91
2022-11-29T15:11:52.185Z,99307.75
2022-11-29T15:15:00.067Z,99314.88
2022-11-29T15:18:42.341Z,99315.47
2022-11-29T15:22:07.462Z,99322.94
2022-11-29T15:25:23.070Z,99322.28
2022-11-29T15:28:29.348Z,99321.28
2022-11-29T15:31:31.450Z,99317.06
2022-11-29T15:34:45.134Z,99322.78
2022-11-29T15:37:48.795Z,99331.97
2022-11-29T15:40:58.610Z,99334.69
2022-11-29T15:44:06.153Z,99331.75
2022-11-29T15:47:15.984Z,99334.03
2022-11-29T15:50:25.924Z,99339.47
2022-11-29T15:53:34.206Z,99340.94
2022-11-29T15:56:52.009Z,99339.78
2022-11-29T16:00:00.391Z,99333.00
2022-11-29T16:03:04.343Z,99338.72
2022-11-29T16:06:19.892Z,99335.88
2022-11-29T16:09:59.736Z,99348.41
2022-11-29T16:13:08.084Z,99351.81
2022-11-29T16:16:22.682Z,99357.06
2022-11-29T16:19:35.592Z,99364.56
2022-11-29T16:22:37.644Z,99358.72
2022-11-29T16:26:00.492Z,99365.53
2022-11-29T16:29:02.697Z,99372.50
2022-11-29T16:32:28.549Z,99368.34
2022-11-29T16:35:33.137Z,99364.19
2022-11-29T16:38:35.356Z,99371.38
2022-11-29T16:41:38.660Z,99369.16
2022-11-29T16:44:40.636Z,99367.13
2022-11-29T16:47:53.005Z,99365.59
2022-11-29T16:51:48.068Z,99369.28
2022-11-29T16:54:50.571Z,99371.06
2022-11-29T16:57:52.618Z,99374.16
2022-11-29T17:00:55.398Z,99384.31
2022-11-29T17:03:59.553Z,99382.16
2022-11-29T17:07:01.621Z,99378.88
2022-11-29T17:10:06.485Z,99383.75
2022-11-29T17:13:11.854Z,99393.56
2022-11-29T17:16:15.335Z,99389.97
2022-11-29T17:19:18.596Z,99402.97
2022-11-29T17:22:20.686Z,99398.25
2022-11-29T17:25:22.737Z,99401.13
2022-11-29T17:28:24.800Z,99401.50
2022-11-29T17:31:26.909Z,99402.00
2022-11-29T17:34:29.071Z,99408.84
2022-11-29T17:37:31.386Z,99411.16
2022-11-29T17:40:33.533Z,99414.59
2022-11-29T17:43:36.545Z,99415.22
2022-11-29T17:46:38.819Z,99414.56
2022-11-29T17:49:40.940Z,99416.69
2022-11-29T17:52:44.123Z,99421.06
2022-11-29T17:55:46.142Z,99426.81
2022-11-29T17:58:52.781Z,99433.22
2022-11-29T18:01:54.857Z,99430.25
2022-11-29T18:04:56.920Z,99426.69
2022-11-29T18:07:59.694Z,99426.84
2022-11-29T18:11:10.574Z,99444.34
2022-11-29T18:14:21.051Z,99444.66
2022-11-29T18:17:23.434Z,99440.59
2022-11-29T18:20:25.562Z,99452.50
2022-11-29T18:23:31.046Z,99445.66
2022-11-29T18:26:34.085Z,99454.19
2022-11-29T18:29:39.300Z,99455.78
2022-11-29T18:32:47.682Z,99459.38
2022-11-29T18:35:49.814Z,99452.84
2022-11-29T18:39:10.097Z,99459.72
2022-11-29T18:42:12.696Z,99459.41
2022-11-29T18:45:14.750Z,99457.75
2022-11-29T18:48:16.777Z,99464.47
2022-11-29T18:51:20.198Z,99471.03
2022-11-29T18:54:22.232Z,99469.03
2022-11-29T18:57:24.302Z,99478.69
2022-11-29T19:00:26.442Z,99480.47
2022-11-29T19:03:28.534Z,99480.50
2022-11-29T19:06:38.968Z,99485.72
2022-11-29T19:09:42.016Z,99487.53
2022-11-29T19:12:44.160Z,99493.06
2022-11-29T19:15:53.800Z,99493.53
2022-11-29T19:18:57.135Z,99490.81
2022-11-29T19:21:59.791Z,99491.44
2022-11-29T19:25:01.864Z,99499.94
2022-11-29T19:28:05.904Z,99489.78
2022-11-29T19:31:13.540Z,99488.63
2022-11-29T19:34:15.683Z,99500.22
2022-11-29T19:37:17.750Z,99499.59
2022-11-29T19:40:20.052Z,99498.69
2022-11-29T19:43:22.237Z,99499.50
2022-11-29T19:46:29.978Z,99494.00
2022-11-29T19:49:32.064Z,99486.50
2022-11-29T19:52:34.821Z,99484.34
2022-11-29T19:55:43.817Z,99492.09
2022-11-29T19:58:46.368Z,99500.28
2022-11-29T20:01:48.466Z,99498.66
2022-11-29T20:04:51.825Z,99503.06
2022-11-29T20:07:53.914Z,99506.47
2022-11-29T20:10:56.093Z,99504.03
2022-11-29T20:14:00.158Z,99503.88
2022-11-29T20:17:02.254Z,99503.25
2022-11-29T20:20:05.030Z,99502.75
2022-11-29T20:23:07.144Z,99496.50
2022-11-29T20:26:20.068Z,99495.19
2022-11-29T20:29:27.018Z,99490.78
2022-11-29T20:32:29.193Z,99487.00
2022-11-29T20:35:31.420Z,99486.56
2022-11-29T20:39:12.767Z,99494.69
2022-11-29T20:42:28.626Z,99493.22
2022-11-29T20:45:31.060Z,99497.97
2022-11-29T20:48:33.374Z,99503.69
2022-11-29T20:51:44.824Z,99503.69
2022-11-29T20:54:46.950Z,99509.75
2022-11-29T20:57:49.885Z,99511.56
2022-11-29T21:00:53.399Z,99512.56
2022-11-29T21:03:55.472Z,99505.50
2022-11-29T21:06:58.065Z,99510.25
2022-11-29T21:10:01.610Z,99516.97
2022-11-29T21:13:04.246Z,99518.91
2022-11-29T21:16:07.029Z,99523.31
2022-11-29T21:19:10.672Z,99520.66
2022-11-29T21:22:47.434Z,99514.66
2022-11-29T21:26:09.749Z,99516.66
2022-11-29T21:29:16.917Z,99506.50
2022-11-29T21:32:23.757Z,99508.78
2022-11-29T21:35:26.307Z,99513.22
2022-11-29T21:38:28.367Z,99521.53
2022-11-29T21:41:30.433Z,99520.56
2022-11-29T21:44:32.479Z,99513.84
2022-11-29T21:47:34.581Z,99516.50
2022-11-29T21:50:36.658Z,99515.31
2022-11-29T21:53:39.423Z,99512.72
2022-11-29T21:56:41.479Z,99515.66
2022-11-29T21:59:43.542Z,99508.63
2022-11-29T22:02:45.641Z,99516.16
2022-11-29T22:05:47.789Z,99510.75
2022-11-29T22:08:49.950Z,99512.88
2022-11-29T22:11:51.970Z,99504.19
2022-11-29T22:14:54.399Z,99519.41
2022-11-29T22:17:56.497Z,99512.06
2022-11-29T22:21:03.553Z,99524.81
2022-11-29T22:24:06.765Z,99516.97
2022-11-29T22:27:08.833Z,99514.97
2022-11-29T22:30:11.521Z,99520.41
2022-11-29T22:33:13.728Z,99519.34
2022-11-29T22:36:15.869Z,99534.63
2022-11-29T22:39:17.903Z,99526.38
2022-11-29T22:42:19.924Z,99533.22
2022-11-29T22:45:21.936Z,99535.03
2022-11-29T22:48:23.951Z,99527.97
2022-11-29T22:51:31.603Z,99530.34
2022-11-29T22:54:33.639Z,99537.53
2022-11-29T22:57:35.696Z,99539.78
2022-11-29T23:00:43.936Z,99542.09
2022-11-29T23:03:48.465Z,99550.28
2022-11-29T23:06:50.536Z,99545.84
2022-11-29T23:09:52.569Z,99539.34
2022-11-29T23:12:54.609Z,99541.94
2022-11-29T23:15:56.654Z,99539.81
2022-11-29T23:18:59.063Z,99540.63
2022-11-29T23:22:01.167Z,99540.97
2022-11-29T23:25:03.320Z,99547.88
2022-11-29T23:28:05.369Z,99540.59
2022-11-29T23:31:07.439Z,99545.53
2022-11-29T23:34:09.544Z,99539.31
2022-11-29T23:37:12.766Z,99537.06
2022-11-29T23:40:14.862Z,99537.03
2022-11-29T23:43:16.942Z,99531.63
2022-11-29T23:46:23.506Z,99533.81
2022-11-29T23:49:25.568Z,99535.97
2022-11-29T23:52:27.637Z,99539.19
2022-11-29T23:55:29.668Z,99531.00
2022-11-29T23:58:31.974Z,99537.53
